Aérodrome :
LOGIN :

S'inscrire | Disclaimer

   EN    FR    IT 

 










Légende :    VFR   VFR Marginal   IFR   IFR Intensif   IFR Très Intensif
Visi : 
Plafond : 
>= 8 km
>= 3000ft
5 à 8 km
1000 à 3000 ft
1500m à 5 km
500 à 1000 ft
800 à 1500m
200 à 500 ft
< 800m
< 200 ft
Symboles :   Orages  Brouillard  Fortes neiges  Fortes précipitations  Vent > 20 kt
SIGMETs :   Divers  Orages  Givrage  Turbulence  Onde Orograph.  Cendres Volcan.






- Altitude de l'aérodrome : 80 ft
- Code IATA : LPL


EGGP - Liverpool John Lennon

DERNIER METAR :
  • 221950Z 09011KT 9999 SCT020 08/08 Q0994

METARs EXPIRÉS :
  • 221920Z 09013KT 9000 -RA SCT021 BKN033 08/08 Q0994
  • 221850Z 08012KT 9000 -RA FEW023 BKN036 08/08 Q0993
  • 221820Z 09011KT 9000 -RA SCT023 BKN041 08/08 Q0994
  • 221750Z 10009KT 9000 -RA SCT024 BKN048 08/08 Q0994
  • 221720Z 10009KT 9000 -RA FEW009 SCT015 BKN035 08/08 Q0994

TAF TAF EGGP
Valide du 22 à 18h jusqu'au 23 à 18h UTC


221658Z 2218/2318 13010KT 9999 SCT010
TEMPO 2218/2221 4000 RA BKN010
TEMPO 2221/2302 BKN010
BECMG 2223/2302 07008KT
TEMPO 2302/2311 6000 RA BKN012
BECMG 2311/2313 8000 -RADZ BKN010
TEMPO 2311/2318 3000 RADZ BKN004
ATIS : +44 151 907 2000 (option 5 or ext 5150)
Météo : +44 871 750 5150



MET'MAP, la Météo Aéronautique d'un coup d'oeil ! - Copyright ORBIFLY Décembre 2007 - Disclaimer

ORBIFLY MET'MAP TEAM :

Programmation & Développement : Alexandra Zaïnal
Conception & Développement : Baudouin d'Aumeries
Co-Programmation & Développement : Marc-Olivier Méhu
Soutien technique & logistique : Manuel Goepfert

Contact : metmap@orbifly.com




SOURCES & CREDITS :

   NOAA